Time;durP1;ratioP1;P1;durP2;ratioP2;P2;SDS_P1;SDS_P2;PMS_P1;PMS_P2;Temp;Humidity;BMP_temperature;BMP_pressure;BME280_temperature;BME280_humidity;BME280_pressure;Samples;Min_cycle;Max_cycle;Signal;HPM_P1;HPM_P2
2022/07/07 00:01:55;;;;;;;4.35;3.95;;;;;;;21.72;70.60;100676.50;4995099;28;102538;-48
2022/07/07 00:04:23;;;;;;;4.45;4.03;;;;;;;21.73;70.68;100677.31;4985566;28;103874;-51
2022/07/07 00:06:50;;;;;;;4.10;3.80;;;;;;;21.72;70.73;100682.06;4990602;28;102352;-49
2022/07/07 00:09:18;;;;;;;3.95;3.65;;;;;;;21.72;70.60;100679.28;4976001;28;102453;-49
2022/07/07 00:11:46;;;;;;;4.47;4.07;;;;;;;21.72;70.67;100681.25;4976087;28;102215;-51
2022/07/07 00:14:13;;;;;;;4.10;3.47;;;;;;;21.72;70.34;100675.72;4994973;28;108263;-49
2022/07/07 00:16:39;;;;;;;3.92;3.58;;;;;;;21.71;70.44;100677.69;4995623;28;102512;-50
2022/07/07 00:19:06;;;;;;;4.32;3.80;;;;;;;21.73;70.62;100696.72;4995400;28;102420;-49
2022/07/07 00:21:35;;;;;;;5.32;4.00;;;;;;;21.72;70.43;100690.38;4984476;28;102231;-50
2022/07/07 00:24:01;;;;;;;4.40;4.10;;;;;;;21.72;70.75;100684.81;4994353;28;103838;-51
2022/07/07 00:26:30;;;;;;;4.88;3.85;;;;;;;21.72;70.66;100684.03;4990934;28;102189;-50
2022/07/07 00:28:57;;;;;;;5.22;3.90;;;;;;;21.72;70.75;100693.13;4993077;28;103625;-51
2022/07/07 00:31:23;;;;;;;4.25;3.95;;;;;;;21.72;70.70;100686.78;4983493;28;102592;-51
2022/07/07 00:33:50;;;;;;;4.00;3.70;;;;;;;21.72;70.66;100692.34;4982625;28;104466;-50
2022/07/07 00:36:17;;;;;;;3.95;3.65;;;;;;;21.72;70.34;100690.38;4995447;28;102033;-50
2022/07/07 00:38:45;;;;;;;4.07;3.72;;;;;;;21.72;70.55;100687.59;4994521;28;102390;-49
2022/07/07 00:41:11;;;;;;;4.50;4.10;;;;;;;21.70;70.79;100684.34;4986027;28;102456;-48
2022/07/07 00:43:39;;;;;;;4.07;3.78;;;;;;;21.72;70.48;100693.13;4991706;28;104097;-49
2022/07/07 00:46:07;;;;;;;4.60;4.10;;;;;;;21.71;70.54;100697.06;4989124;28;102044;-49
2022/07/07 00:48:36;;;;;;;4.03;3.70;;;;;;;21.71;70.49;100691.53;4977193;28;102366;-49
2022/07/07 00:51:04;;;;;;;4.22;3.83;;;;;;;21.72;70.58;100695.91;4979695;28;102316;-48
2022/07/07 00:53:31;;;;;;;4.32;3.85;;;;;;;21.71;70.81;100696.22;4978283;28;103865;-52
2022/07/07 00:56:00;;;;;;;3.95;3.55;;;;;;;21.71;70.64;100691.53;4992813;28;102595;-49
2022/07/07 00:58:27;;;;;;;8.18;4.10;;;;;;;21.72;70.78;100690.38;4997962;28;102429;-51
2022/07/07 01:00:54;;;;;;;4.53;4.13;;;;;;;21.72;70.72;100687.59;5000130;28;102004;-49
2022/07/07 01:03:20;;;;;;;4.25;3.60;;;;;;;21.71;70.69;100691.53;4998008;28;103944;-48
2022/07/07 01:05:48;;;;;;;4.10;3.80;;;;;;;21.70;70.65;100689.91;4996888;28;102377;-51
2022/07/07 01:08:16;;;;;;;4.00;3.60;;;;;;;21.72;70.15;100692.34;4998482;28;102245;-48
2022/07/07 01:10:43;;;;;;;4.20;3.80;;;;;;;21.72;70.68;100693.13;4999230;28;102652;-48
2022/07/07 01:13:12;;;;;;;3.92;3.63;;;;;;;21.71;70.39;100697.06;4998063;28;104247;-49
2022/07/07 01:15:40;;;;;;;3.92;3.63;;;;;;;21.72;70.56;100698.69;4996403;28;102274;-50
2022/07/07 01:18:06;;;;;;;3.72;3.42;;;;;;;21.71;70.57;100710.91;4997551;28;102443;-49
2022/07/07 01:20:34;;;;;;;5.13;3.95;;;;;;;21.72;70.63;100715.28;4999081;28;102390;-50
2022/07/07 01:23:03;;;;;;;4.30;3.90;;;;;;;21.71;70.65;100710.91;4996953;28;104108;-49
2022/07/07 01:25:29;;;;;;;4.40;4.10;;;;;;;21.72;70.73;100711.72;4993218;28;102257;-48
2022/07/07 01:27:56;;;;;;;3.90;3.60;;;;;;;21.71;70.49;100718.41;4996727;28;101947;-49
2022/07/07 01:30:24;;;;;;;4.03;3.55;;;;;;;21.71;70.66;100713.69;4999239;28;102388;-48
2022/07/07 01:32:53;;;;;;;4.25;3.95;;;;;;;21.72;70.74;100715.28;4997492;28;104446;-50
2022/07/07 01:35:20;;;;;;;3.97;3.65;;;;;;;21.72;70.77;100717.25;4985630;28;102289;-49
2022/07/07 01:37:46;;;;;;;4.22;3.83;;;;;;;21.72;70.60;100714.50;4992364;28;102068;-50
2022/07/07 01:40:14;;;;;;;4.70;4.15;;;;;;;21.72;70.38;100725.56;4999555;28;102269;-49
2022/07/07 01:42:41;;;;;;;4.53;4.13;;;;;;;21.72;70.82;100720.84;4994884;28;103770;-48
2022/07/07 01:45:09;;;;;;;4.40;4.10;;;;;;;21.72;70.66;100720.84;4997139;28;102158;-50
2022/07/07 01:47:36;;;;;;;4.00;3.70;;;;;;;21.72;70.66;100722.81;4997559;28;102251;-49
2022/07/07 01:50:03;;;;;;;4.55;4.15;;;;;;;21.72;70.80;100722.81;4997981;28;102190;-50
2022/07/07 01:52:29;;;;;;;4.53;4.13;;;;;;;21.72;70.52;100723.59;4988268;28;103988;-48
2022/07/07 01:54:56;;;;;;;4.90;4.43;;;;;;;21.72;70.54;100720.84;4981379;28;102168;-48
2022/07/07 01:57:24;;;;;;;4.82;4.32;;;;;;;21.72;70.54;100720.03;4990943;28;102107;-48
2022/07/07 01:59:51;;;;;;;5.50;4.60;;;;;;;21.72;70.47;100714.50;4992578;28;102754;-49
2022/07/07 02:02:18;;;;;;;5.22;4.78;;;;;;;21.73;70.64;100718.88;4996959;28;104091;-49
2022/07/07 02:04:45;;;;;;;5.05;4.65;;;;;;;21.72;70.74;100720.84;4988462;28;102727;-51
2022/07/07 02:07:13;;;;;;;5.18;4.70;;;;;;;21.72;70.71;100726.38;4996209;28;101913;-51
2022/07/07 02:09:39;;;;;;;4.95;4.47;;;;;;;21.73;70.73;100727.19;4999702;28;102475;-51
2022/07/07 02:12:06;;;;;;;5.28;4.80;;;;;;;21.72;70.65;100731.13;4996063;28;103974;-51
2022/07/07 02:14:34;;;;;;;5.53;4.75;;;;;;;21.73;70.78;100736.28;4989760;28;102539;-51
2022/07/07 02:17:01;;;;;;;5.43;4.93;;;;;;;21.73;70.66;100732.72;4987830;28;102646;-51
2022/07/07 02:19:27;;;;;;;5.30;4.90;;;;;;;21.73;70.81;100741.03;4998587;28;102214;-49
2022/07/07 02:21:54;;;;;;;5.72;5.22;;;;;;;21.72;70.75;100743.00;4995778;28;103923;-50
2022/07/07 02:24:21;;;;;;;5.93;5.43;;;;;;;21.73;70.70;100739.06;4985852;28;102280;-51
2022/07/07 02:26:47;;;;;;;6.05;5.50;;;;;;;21.73;70.92;100741.03;4996918;28;102255;-52
2022/07/07 02:29:14;;;;;;;6.13;5.63;;;;;;;21.72;70.75;100743.00;4998166;28;102574;-50
2022/07/07 02:31:42;;;;;;;6.30;5.70;;;;;;;21.72;70.86;100744.97;4995951;28;104004;-49
2022/07/07 02:34:08;;;;;;;6.23;5.63;;;;;;;21.73;70.62;100750.13;4988179;28;102292;-49
2022/07/07 02:36:35;;;;;;;6.45;5.85;;;;;;;21.73;70.95;100746.56;4983167;28;102324;-51
2022/07/07 02:39:01;;;;;;;6.15;5.60;;;;;;;21.73;70.79;100750.13;4978721;28;102042;-47
2022/07/07 02:41:28;;;;;;;6.18;5.57;;;;;;;21.73;70.80;100754.88;4975878;28;104042;-50
2022/07/07 02:43:55;;;;;;;6.75;5.80;;;;;;;21.72;70.83;100754.06;4977302;28;102347;-50
2022/07/07 02:46:21;;;;;;;6.72;6.13;;;;;;;21.73;70.86;100750.13;4985933;28;102408;-50
2022/07/07 02:48:49;;;;;;;6.45;5.88;;;;;;;21.73;70.74;100758.44;4981029;28;102281;-49
2022/07/07 02:51:16;;;;;;;5.57;5.17;;;;;;;21.73;70.78;100755.69;4996111;28;104153;-51
2022/07/07 02:53:44;;;;;;;6.47;6.00;;;;;;;21.74;70.92;100756.47;4997333;28;102095;-50
2022/07/07 02:56:10;;;;;;;6.78;6.18;;;;;;;21.73;70.75;100755.69;4994350;28;102080;-49
2022/07/07 02:58:38;;;;;;;7.07;6.47;;;;;;;21.73;70.71;100760.41;4997489;28;102274;-49
2022/07/07 03:01:04;;;;;;;6.57;6.00;;;;;;;21.74;70.73;100757.28;4986042;28;103755;-48
2022/07/07 03:03:31;;;;;;;6.95;6.45;;;;;;;21.74;70.75;100762.81;4993770;28;102180;-49
2022/07/07 03:05:59;;;;;;;6.32;5.82;;;;;;;21.75;70.73;100753.38;4992628;28;102088;-49
2022/07/07 03:08:26;;;;;;;;;;;;;;;21.74;70.76;100762.81;4996013;28;102200;-48
2022/07/07 03:10:53;;;;;;;8.57;6.85;;;;;;;21.76;70.61;100763.31;4988672;28;104099;-49
2022/07/07 03:13:19;;;;;;;7.07;6.50;;;;;;;21.76;70.84;100755.00;4988585;28;102498;-48
2022/07/07 03:15:45;;;;;;;7.30;6.63;;;;;;;21.76;70.57;100755.00;4995465;28;102145;-50
2022/07/07 03:18:13;;;;;;;6.80;6.22;;;;;;;21.76;70.62;100754.19;4996797;28;102363;-52
2022/07/07 03:20:40;;;;;;;7.82;7.18;;;;;;;21.77;70.48;100762.13;4988228;28;104012;-50
2022/07/07 03:23:08;;;;;;;7.20;6.60;;;;;;;21.77;70.63;100762.13;4996270;28;101966;-50
2022/07/07 03:25:34;;;;;;;7.97;7.28;;;;;;;21.77;70.46;100758.56;4994637;28;102429;-51
2022/07/07 03:28:01;;;;;;;7.63;6.97;;;;;;;21.78;70.58;100769.31;4994648;28;102887;-51
2022/07/07 03:30:27;;;;;;;8.25;6.78;;;;;;;21.79;70.64;100770.13;4984503;28;103893;-50
2022/07/07 03:32:54;;;;;;;7.80;7.18;;;;;;;21.79;70.74;100770.13;4995985;28;102244;-49
2022/07/07 03:35:21;;;;;;;7.75;7.05;;;;;;;21.79;70.80;100768.16;4996029;28;101937;-49
2022/07/07 03:37:47;;;;;;;7.60;7.00;;;;;;;21.79;70.55;100770.94;4997263;28;102246;-49
2022/07/07 03:40:15;;;;;;;7.70;7.00;;;;;;;21.79;70.71;100770.13;4993603;28;103957;-48
2022/07/07 03:42:42;;;;;;;8.27;7.35;;;;;;;21.79;70.86;100773.69;4992002;28;102422;-51
2022/07/07 03:45:09;;;;;;;7.82;7.22;;;;;;;21.79;70.70;100772.91;4983469;28;102204;-49
2022/07/07 03:47:36;;;;;;;9.02;7.28;;;;;;;21.79;70.93;100776.47;4977369;28;102665;-48
2022/07/07 03:50:03;;;;;;;7.88;7.18;;;;;;;21.80;71.01;100780.03;4976930;28;103381;-51
2022/07/07 03:52:30;;;;;;;7.60;6.90;;;;;;;21.80;70.95;100777.28;4996661;28;101928;-50
2022/07/07 03:54:57;;;;;;;8.05;7.35;;;;;;;21.81;70.90;100773.34;4995553;28;101944;-50
2022/07/07 03:57:25;;;;;;;7.90;7.20;;;;;;;21.80;71.20;100778.06;4994541;28;102461;-49
2022/07/07 03:59:51;;;;;;;8.03;7.30;;;;;;;21.82;70.69;100780.50;4994015;28;104278;-47
2022/07/07 04:02:18;;;;;;;8.48;7.78;;;;;;;21.82;70.59;100781.31;4995615;28;102092;-48
2022/07/07 04:04:45;;;;;;;8.63;7.82;;;;;;;21.81;71.03;100785.22;4995960;28;102566;-49
2022/07/07 04:07:11;;;;;;;8.50;7.70;;;;;;;21.82;70.88;100786.06;4996657;28;103498;-48
2022/07/07 04:09:38;;;;;;;8.18;7.47;;;;;;;21.82;70.81;100781.31;4993654;28;103899;-47
2022/07/07 04:12:05;;;;;;;8.52;7.82;;;;;;;21.83;70.78;100773.81;4995806;28;102354;-48
2022/07/07 04:14:35;;;;;;;8.60;7.78;;;;;;;21.83;71.05;100776.59;4995425;28;102431;-47
2022/07/07 04:17:03;;;;;;;8.75;8.05;;;;;;;21.84;70.88;100783.72;4996576;28;102503;-48
2022/07/07 04:19:30;;;;;;;8.70;7.93;;;;;;;21.83;70.62;100777.38;4994265;28;104159;-48
2022/07/07 04:21:57;;;;;;;8.73;7.85;;;;;;;21.84;70.85;100779.00;4988492;28;102361;-48
2022/07/07 04:24:24;;;;;;;8.57;7.88;;;;;;;21.84;70.64;100781.75;4981941;28;102519;-49
2022/07/07 04:26:50;;;;;;;7.80;7.10;;;;;;;21.84;70.94;100773.44;4999972;28;102229;-51
2022/07/07 04:29:17;;;;;;;8.27;7.57;;;;;;;21.83;70.80;100771.84;4996289;28;103818;-48
2022/07/07 04:31:45;;;;;;;8.50;7.80;;;;;;;21.86;70.91;100769.56;4991403;28;102471;-49
2022/07/07 04:34:12;;;;;;;8.57;7.77;;;;;;;21.84;70.80;100773.44;4998656;28;101989;-48
2022/07/07 04:36:40;;;;;;;9.10;8.30;;;;;;;21.86;70.72;100769.56;4999787;28;102240;-51
2022/07/07 04:39:08;;;;;;;8.80;8.10;;;;;;;21.86;70.84;100766.78;4998294;28;103843;-50
2022/07/07 04:41:36;;;;;;;8.05;7.43;;;;;;;21.86;70.89;100759.28;4991000;28;102903;-48
2022/07/07 04:44:06;;;;;;;7.53;6.93;;;;;;;21.86;70.71;100767.59;4995191;28;102747;-49
2022/07/07 04:46:33;;;;;;;8.63;7.93;;;;;;;21.87;70.83;100760.06;4999402;28;102236;-47
2022/07/07 04:49:01;;;;;;;9.07;8.27;;;;;;;21.87;70.86;100771.97;4997232;28;103828;-48
2022/07/07 04:51:28;;;;;;;9.07;8.27;;;;;;;21.87;70.74;100765.63;4990564;28;101863;-48
2022/07/07 04:53:55;;;;;;;9.00;8.10;;;;;;;21.87;70.97;100760.06;4978586;28;102236;-49
2022/07/07 04:56:22;;;;;;;9.10;8.30;;;;;;;21.87;70.95;100762.84;4996974;28;102331;-48
2022/07/07 04:58:48;;;;;;;9.18;8.38;;;;;;;21.89;70.60;100766.91;4984675;28;104423;-49
2022/07/07 05:01:15;;;;;;;9.15;8.35;;;;;;;21.89;70.84;100764.13;4993645;28;102159;-50
2022/07/07 05:03:42;;;;;;;9.27;8.48;;;;;;;21.89;70.67;100769.66;4997522;28;102176;-48
2022/07/07 05:06:10;;;;;;;9.52;8.63;;;;;;;21.91;70.73;100763.75;4998056;28;102511;-50
2022/07/07 05:08:39;;;;;;;10.35;9.38;;;;;;;21.93;70.63;100770.59;4995067;28;103956;-48
2022/07/07 05:11:06;;;;;;;9.35;8.52;;;;;;;21.93;70.85;100764.25;4983781;28;102409;-49
2022/07/07 05:13:35;;;;;;;;;;;;;;;21.93;70.58;100769.78;4982330;28;101987;-50
2022/07/07 05:16:02;;;;;;;9.05;8.05;;;;;;;21.93;70.79;100776.13;4991792;28;102098;-49
2022/07/07 05:18:30;;;;;;;9.50;8.70;;;;;;;21.94;70.44;100779.69;4997058;28;104021;-48
2022/07/07 05:20:56;;;;;;;9.20;8.40;;;;;;;21.97;70.52;100779.00;4998271;28;102380;-48
2022/07/07 05:23:25;;;;;;;8.95;8.18;;;;;;;21.96;70.69;100775.44;4989365;28;102892;-49
2022/07/07 05:25:53;;;;;;;9.52;8.73;;;;;;;21.98;70.39;100764.78;4985667;28;102300;-48
2022/07/07 05:28:20;;;;;;;9.07;8.38;;;;;;;22.00;70.43;100770.00;4994586;28;103965;-48
2022/07/07 05:30:47;;;;;;;9.55;8.65;;;;;;;22.01;70.23;100777.16;4995958;28;102052;-51
2022/07/07 05:33:13;;;;;;;9.23;8.43;;;;;;;22.01;70.34;100780.72;4984665;28;102242;-48
2022/07/07 05:35:40;;;;;;;9.27;8.43;;;;;;;22.02;70.40;100767.69;4992937;28;102419;-48
2022/07/07 05:38:08;;;;;;;9.40;8.60;;;;;;;22.02;70.36;100768.47;4979169;28;103910;-48
2022/07/07 05:40:36;;;;;;;9.15;8.35;;;;;;;22.03;70.42;100764.59;4991508;28;102213;-50
2022/07/07 05:43:03;;;;;;;9.30;8.50;;;;;;;22.04;70.44;100766.19;4997448;28;102380;-51
2022/07/07 05:45:31;;;;;;;9.43;8.63;;;;;;;22.06;70.44;100768.59;4998627;28;102302;-48
2022/07/07 05:47:58;;;;;;;9.75;8.90;;;;;;;22.07;70.44;100770.22;4995726;28;103960;-49
2022/07/07 05:50:24;;;;;;;9.50;8.70;;;;;;;22.07;70.23;100767.47;4997696;28;102087;-48
2022/07/07 05:52:51;;;;;;;9.30;8.27;;;;;;;22.08;70.21;100769.06;4996814;28;102536;-49
2022/07/07 05:55:18;;;;;;;9.38;8.57;;;;;;;22.10;70.14;100758.44;4988326;28;102478;-50
2022/07/07 05:57:46;;;;;;;10.00;9.10;;;;;;;22.12;70.08;100760.88;4979439;28;104184;-48
2022/07/07 06:00:13;;;;;;;10.03;9.17;;;;;;;22.12;70.35;100756.13;5009872;28;102745;-48
2022/07/07 06:02:40;;;;;;;9.43;8.40;;;;;;;22.12;70.15;100758.91;4995085;28;102591;-49
2022/07/07 06:05:08;;;;;;;9.40;8.70;;;;;;;22.12;70.27;100766.41;4998419;28;102086;-48
2022/07/07 06:07:38;;;;;;;9.15;8.35;;;;;;;22.12;70.36;100764.44;4996723;28;104105;-49
2022/07/07 06:10:06;;;;;;;9.20;8.40;;;;;;;22.10;70.28;100763.97;4996103;28;104200;-48
2022/07/07 06:12:33;;;;;;;;;;;;;;;22.10;70.40;100761.19;4997355;28;102182;-49
2022/07/07 06:15:02;;;;;;;8.68;7.97;;;;;;;22.11;70.32;100757.28;4992618;28;102317;-49
2022/07/07 06:17:28;;;;;;;9.57;8.77;;;;;;;22.11;70.39;100756.47;4995506;28;103850;-48
2022/07/07 09:56:05;;;;;;;10.57;9.57;;;;;;;22.54;69.22;100772.50;5029352;27;102360;-50
2022/07/07 09:58:32;;;;;;;;;;;;;;;22.58;68.74;100773.41;4968240;28;103108;-51
2022/07/07 10:00:59;;;;;;;10.80;9.85;;;;;;;22.60;69.18;100765.50;4961219;28;103195;-49
2022/07/07 10:03:25;;;;;;;10.38;9.48;;;;;;;22.61;68.97;100767.16;4964131;28;102388;-49
2022/07/07 10:05:52;;;;;;;11.55;10.52;;;;;;;22.65;68.32;100761.72;4952196;28;102334;-49
2022/07/07 10:08:19;;;;;;;11.18;10.18;;;;;;;22.64;68.51;100766.41;4950994;28;102842;-50
2022/07/07 10:10:47;;;;;;;11.40;10.38;;;;;;;22.66;68.36;100758.56;4949068;28;103923;-49
2022/07/07 10:13:15;;;;;;;10.70;9.80;;;;;;;22.64;68.46;100760.88;4939668;28;102035;-50
2022/07/07 10:15:42;;;;;;;9.93;9.13;;;;;;;22.65;68.27;100765.28;4954247;28;102772;-49
2022/07/07 10:18:09;;;;;;;10.35;9.45;;;;;;;22.64;68.28;100760.88;4956195;28;102168;-50
2022/07/07 10:20:36;;;;;;;9.93;9.00;;;;;;;22.67;68.06;100759.38;4948657;28;104175;-51
2022/07/07 10:23:03;;;;;;;10.57;9.68;;;;;;;22.64;68.02;100758.09;4954464;28;101962;-49
2022/07/07 10:25:29;;;;;;;10.82;9.73;;;;;;;22.64;68.27;100760.06;4954127;28;101981;-49
2022/07/07 10:27:56;;;;;;;9.85;9.05;;;;;;;22.63;68.31;100753.72;4962096;28;102197;-50
2022/07/07 10:30:31;;;;;;;9.98;8.95;;;;;;;22.64;68.16;100765.63;4953689;28;104105;-49
2022/07/07 10:32:58;;;;;;;9.68;8.80;;;;;;;22.63;68.42;100758.47;4954307;28;102203;-49
2022/07/07 10:35:25;;;;;;;10.18;9.27;;;;;;;22.61;68.74;100761.59;4949540;28;102592;-50
2022/07/07 10:37:54;;;;;;;9.57;8.70;;;;;;;22.61;68.38;100761.59;4955037;28;102338;-49
2022/07/07 10:40:23;;;;;;;9.75;8.88;;;;;;;22.59;68.87;100752.81;4954317;28;103914;-49
2022/07/07 10:43:12;;;;;;;9.13;8.32;;;;;;;22.59;68.67;100749.25;4954467;28;101988;-51
2022/07/07 10:45:45;;;;;;;9.32;8.52;;;;;;;22.57;69.03;100757.88;4938420;28;104110;-49
2022/07/07 10:48:40;;;;;;;9.57;8.57;;;;;;;22.57;68.84;100751.53;4949561;28;102231;-49
2022/07/07 10:51:15;;;;;;;8.60;7.80;;;;;;;22.55;69.42;100751.91;4949161;28;103948;-51
2022/07/07 10:53:54;;;;;;;8.50;7.53;;;;;;;22.55;69.16;100746.34;4958919;28;102288;-50
2022/07/07 10:56:21;;;;;;;8.10;7.50;;;;;;;22.53;69.46;100751.44;4969315;28;102140;-50
2022/07/07 10:58:56;;;;;;;8.93;7.78;;;;;;;22.53;69.33;100743.91;4960988;28;101976;-48
2022/07/07 11:01:26;;;;;;;8.50;7.63;;;;;;;22.52;69.46;100744.28;4955847;28;103944;-49
2022/07/07 11:03:53;;;;;;;8.20;7.50;;;;;;;22.52;69.62;100747.06;4955531;28;102275;-49
2022/07/07 11:06:20;;;;;;;8.50;7.78;;;;;;;22.52;69.60;100747.06;4954225;28;102355;-50
2022/07/07 11:09:02;;;;;;;8.40;7.70;;;;;;;22.51;69.85;100737.13;4948420;28;102664;-51
2022/07/07 11:11:29;;;;;;;7.40;6.80;;;;;;;22.50;69.66;100739.09;4952843;28;103893;-48
2022/07/07 11:14:07;;;;;;;7.55;6.82;;;;;;;22.50;69.74;100738.25;4959439;28;102192;-49
2022/07/07 11:16:35;;;;;;;7.55;6.95;;;;;;;22.49;69.65;100736.66;4959046;28;102093;-48
2022/07/07 11:19:04;;;;;;;7.63;6.93;;;;;;;22.48;69.69;100738.63;4941936;28;102160;-49
2022/07/07 11:21:36;;;;;;;7.63;6.95;;;;;;;22.48;69.84;100726.75;4954505;28;103877;-50
2022/07/07 11:24:14;;;;;;;7.60;7.00;;;;;;;22.46;69.72;100732.63;4957971;28;102333;-48
2022/07/07 11:26:40;;;;;;;7.67;7.03;;;;;;;22.47;69.49;100739.81;4955106;28;102397;-47
2022/07/07 11:29:07;;;;;;;7.53;6.82;;;;;;;22.47;69.66;100734.25;4959886;28;102159;-49
2022/07/07 11:31:35;;;;;;;6.88;6.38;;;;;;;22.45;69.48;100739.34;4957741;28;103871;-50
2022/07/07 11:34:01;;;;;;;8.73;7.00;;;;;;;22.47;69.72;100730.69;4956616;28;102357;-49
2022/07/07 11:36:29;;;;;;;7.80;7.00;;;;;;;22.45;69.74;100735.75;4956620;28;102142;-48
2022/07/07 11:38:57;;;;;;;6.90;6.30;;;;;;;22.45;69.68;100727.44;4961441;28;102202;-48
2022/07/07 11:41:37;;;;;;;6.43;5.93;;;;;;;22.44;69.43;100714.75;4954072;28;103907;-50
2022/07/07 11:44:04;;;;;;;6.85;6.22;;;;;;;22.46;69.55;100720.72;4959707;28;101990;-49
2022/07/07 11:46:31;;;;;;;7.13;6.43;;;;;;;22.46;69.92;100721.53;4958118;28;102519;-51
2022/07/07 11:48:59;;;;;;;6.57;6.07;;;;;;;22.44;69.76;100718.31;4971375;28;102164;-49
2022/07/07 11:51:29;;;;;;;6.93;6.33;;;;;;;22.44;69.97;100723.06;4958938;28;103904;-49
2022/07/07 11:53:58;;;;;;;7.38;6.78;;;;;;;22.43;69.37;100719.47;4955553;28;102188;-48
2022/07/07 11:56:28;;;;;;;6.50;6.00;;;;;;;22.43;69.58;100710.31;4959599;28;106135;-49
2022/07/07 11:58:56;;;;;;;6.55;5.90;;;;;;;22.42;69.51;100723.38;4974733;28;102106;-48
2022/07/07 12:01:22;;;;;;;6.93;6.22;;;;;;;22.42;69.56;100711.50;4958287;28;103905;-49
2022/07/07 12:03:49;;;;;;;6.25;5.75;;;;;;;22.43;69.63;100707.56;4958737;28;102495;-48
2022/07/07 12:06:17;;;;;;;6.40;5.90;;;;;;;22.41;69.80;100696.03;4957188;28;101898;-51
2022/07/07 12:08:43;;;;;;;6.63;6.13;;;;;;;22.41;69.40;100702.38;4944989;28;102163;-50
2022/07/07 12:11:12;;;;;;;6.65;6.10;;;;;;;22.40;69.38;100699.97;4957404;28;103917;-49
2022/07/07 12:13:39;;;;;;;6.65;5.95;;;;;;;22.41;69.48;100696.03;4956724;28;102376;-49
2022/07/07 12:16:06;;;;;;;6.45;5.93;;;;;;;22.40;69.22;100694.41;4958807;28;102391;-48
2022/07/07 12:18:38;;;;;;;6.40;5.90;;;;;;;22.40;69.27;100694.41;4956393;28;102249;-48
2022/07/07 12:21:06;;;;;;;6.72;6.20;;;;;;;22.39;69.36;100688.03;4951098;28;103905;-49
2022/07/07 12:23:42;;;;;;;6.25;5.75;;;;;;;22.38;69.48;100697.53;4956692;28;103915;-49
2022/07/07 12:26:14;;;;;;;6.20;5.70;;;;;;;22.37;69.21;100690.38;4958493;28;102485;-49
2022/07/07 12:28:41;;;;;;;6.82;6.20;;;;;;;22.38;69.50;100686.44;4961348;28;102328;-48
2022/07/07 12:31:08;;;;;;;6.88;6.28;;;;;;;22.38;69.33;100680.09;4957308;28;103859;-50
2022/07/07 12:33:37;;;;;;;7.35;6.13;;;;;;;22.38;69.49;100688.41;4959334;28;102174;-50
2022/07/07 12:36:08;;;;;;;6.60;6.10;;;;;;;22.37;68.91;100678.47;4949820;28;102082;-54
2022/07/07 12:38:37;;;;;;;7.47;6.72;;;;;;;22.38;69.34;100685.63;4942176;28;102342;-49
2022/07/07 12:41:06;;;;;;;6.75;6.07;;;;;;;22.36;69.13;100687.94;4959881;28;103797;-49
2022/07/07 12:43:34;;;;;;;6.85;6.35;;;;;;;22.36;69.32;100688.78;4965019;28;104059;-49
2022/07/07 12:46:10;;;;;;;7.07;6.37;;;;;;;22.36;69.10;100690.72;4941766;28;102111;-50
2022/07/07 12:48:45;;;;;;;6.70;6.13;;;;;;;22.35;68.85;100694.66;4955802;28;102337;-50
2022/07/07 12:51:12;;;;;;;6.57;6.03;;;;;;;22.34;69.05;100702.16;4954742;28;108723;-51
2022/07/07 12:53:39;;;;;;;6.68;6.10;;;;;;;22.34;69.07;100701.38;4966316;28;105911;-49
2022/07/07 12:56:15;;;;;;;6.50;5.90;;;;;;;22.35;69.58;100702.97;4958511;28;102132;-48
2022/07/07 12:58:44;;;;;;;6.65;6.05;;;;;;;22.33;68.98;100711.66;4940766;28;102094;-49
2022/07/07 13:01:16;;;;;;;6.68;5.68;;;;;;;22.33;69.09;100717.19;4950274;28;103901;-49
2022/07/07 13:03:44;;;;;;;6.38;5.88;;;;;;;22.33;69.43;100710.84;4958542;28;102510;-48
2022/07/07 13:06:11;;;;;;;6.85;6.25;;;;;;;22.31;69.28;100720.31;4957774;28;102229;-48
2022/07/07 13:08:38;;;;;;;6.25;5.70;;;;;;;22.31;69.05;100722.28;4955268;28;102516;-49
2022/07/07 13:11:05;;;;;;;7.15;6.55;;;;;;;22.29;69.42;100722.63;4954648;28;103919;-51
2022/07/07 13:13:33;;;;;;;6.68;6.07;;;;;;;22.29;69.17;100722.63;4964052;28;102329;-50
2022/07/07 13:16:00;;;;;;;6.05;5.55;;;;;;;22.29;69.99;100725.41;4956558;28;102060;-48
2022/07/07 13:18:27;;;;;;;6.55;6.00;;;;;;;22.28;69.09;100726.53;4966876;28;102303;-48
2022/07/07 13:20:56;;;;;;;6.93;6.32;;;;;;;22.29;69.55;100733.72;4954932;28;103883;-48
2022/07/07 13:23:22;;;;;;;6.28;5.78;;;;;;;22.30;69.40;100729.78;4956819;28;102200;-48
2022/07/07 13:25:49;;;;;;;6.03;5.43;;;;;;;22.31;69.83;100725.84;4953419;28;102161;-47
2022/07/07 13:28:16;;;;;;;6.93;6.43;;;;;;;22.30;69.33;100723.44;4959847;28;102356;-47
2022/07/07 13:30:44;;;;;;;6.10;5.60;;;;;;;22.30;69.80;100724.25;4953232;28;103846;-48
2022/07/07 13:33:10;;;;;;;6.68;6.15;;;;;;;22.29;70.01;100727.38;4951809;28;102001;-49
2022/07/07 13:35:38;;;;;;;6.18;5.68;;;;;;;22.28;69.83;100737.63;4957753;28;102198;-49
2022/07/07 13:38:04;;;;;;;6.43;5.93;;;;;;;22.29;70.01;100725.41;4971875;28;102312;-48
2022/07/07 13:40:31;;;;;;;6.30;5.80;;;;;;;22.28;69.85;100721.00;4978404;28;103854;-48
2022/07/07 13:42:58;;;;;;;6.57;6.07;;;;;;;22.27;69.91;100724.94;4981539;28;102048;-48
2022/07/07 13:45:25;;;;;;;7.03;6.40;;;;;;;22.25;69.90;100716.19;4975133;28;102583;-49
2022/07/07 13:47:52;;;;;;;6.30;5.78;;;;;;;22.26;70.10;100728.88;4977570;28;102209;-48
2022/07/07 13:50:19;;;;;;;4.90;4.33;;;;;;;22.24;70.19;100717.31;4975570;28;104282;-47
2022/07/07 13:52:46;;;;;;;6.68;6.07;;;;;;;22.27;69.99;100713.03;4975602;28;102126;-50
2022/07/07 13:55:12;;;;;;;6.22;5.63;;;;;;;22.24;70.04;100724.84;4989526;28;102499;-48
2022/07/07 13:57:39;;;;;;;6.75;6.03;;;;;;;22.23;70.17;100717.69;4995929;28;102270;-47
2022/07/07 14:00:08;;;;;;;6.40;5.80;;;;;;;22.21;70.21;100718.00;4995468;28;104175;-48
2022/07/07 14:02:35;;;;;;;6.18;5.57;;;;;;;22.21;70.47;100720.78;4995569;28;101918;-47
2022/07/07 14:05:03;;;;;;;7.43;5.80;;;;;;;22.21;70.05;100726.31;4991858;28;102045;-49
2022/07/07 14:07:30;;;;;;;;;;;;;;;22.20;70.49;100713.63;4990070;28;102351;-48
2022/07/07 14:09:57;;;;;;;6.32;5.72;;;;;;;22.20;69.93;100713.63;4993834;28;103882;-48
2022/07/07 14:12:25;;;;;;;6.30;5.80;;;;;;;22.20;70.21;100726.69;4994516;28;103369;-47
2022/07/07 14:14:51;;;;;;;6.53;5.87;;;;;;;22.20;70.10;100729.47;4995724;28;102352;-48
2022/07/07 14:17:18;;;;;;;7.35;5.70;;;;;;;22.19;70.17;100717.56;4995426;28;102223;-48
2022/07/07 14:19:45;;;;;;;6.28;5.75;;;;;;;22.19;69.88;100723.13;4994552;28;103987;-49
2022/07/07 14:22:13;;;;;;;6.38;5.78;;;;;;;22.20;70.25;100726.69;4995416;28;101941;-48
2022/07/07 14:24:40;;;;;;;6.80;6.20;;;;;;;22.20;70.13;100718.38;4989842;28;102116;-47
2022/07/07 14:27:07;;;;;;;6.45;5.85;;;;;;;22.18;70.01;100710.41;4994909;28;102357;-48
2022/07/07 14:29:34;;;;;;;7.78;6.38;;;;;;;22.18;70.41;100715.97;5004935;28;104032;-48
2022/07/07 14:32:01;;;;;;;6.85;6.18;;;;;;;22.19;70.49;100719.53;4996923;28;102311;-48
2022/07/07 14:34:28;;;;;;;6.78;5.60;;;;;;;22.20;69.96;100730.25;4999968;28;102037;-48
2022/07/07 14:36:54;;;;;;;6.00;5.50;;;;;;;22.21;70.30;100725.53;4998312;28;102156;-48
2022/07/07 14:39:22;;;;;;;6.78;6.07;;;;;;;22.19;70.33;100720.34;4997282;28;103900;-47
2022/07/07 14:41:49;;;;;;;6.20;5.70;;;;;;;22.19;70.33;100722.31;4997099;28;101946;-48
2022/07/07 14:44:17;;;;;;;6.28;5.60;;;;;;;22.19;70.17;100728.66;4998204;28;102204;-49
2022/07/07 14:46:43;;;;;;;6.13;5.60;;;;;;;22.19;70.21;100723.13;4996640;28;102977;-48
2022/07/07 14:49:10;;;;;;;5.88;5.38;;;;;;;22.20;70.46;100726.69;5005701;28;103900;-48
2022/07/07 14:51:37;;;;;;;7.00;6.28;;;;;;;22.21;70.43;100714.44;4998954;28;101978;-48
2022/07/07 14:54:06;;;;;;;6.00;5.50;;;;;;;22.20;70.38;100730.25;4984043;28;102654;-47
2022/07/07 14:56:35;;;;;;;6.45;5.78;;;;;;;22.24;70.12;100724.84;4980663;28;102444;-48